Time;durP1;ratioP1;P1;durP2;ratioP2;P2;SDS_P1;SDS_P2;PMS_P1;PMS_P2;Temp;Humidity;BMP_temperature;BMP_pressure;BME280_temperature;BME280_humidity;BME280_pressure;Samples;Min_cycle;Max_cycle;Signal;HPM_P1;HPM_P2
2021/03/14 00:02:26;;;;;;;5.33;1.60;;;4.00;99.70;;;;;;5049854;28;20448;-71
2021/03/14 00:04:52;;;;;;;2.83;1.50;;;4.00;99.70;;;;;;5049368;28;20466;-70
2021/03/14 00:07:18;;;;;;;1.70;1.30;;;4.00;99.70;;;;;;5049583;28;20448;-71
2021/03/14 00:09:44;;;;;;;1.50;1.23;;;4.10;99.70;;;;;;5049415;28;20468;-71
2021/03/14 00:12:12;;;;;;;2.63;1.50;;;4.20;99.70;;;;;;5049851;28;20536;-71
2021/03/14 00:14:38;;;;;;;2.17;1.50;;;4.10;99.70;;;;;;5049739;28;20907;-71
2021/03/14 00:17:04;;;;;;;2.00;1.63;;;4.10;99.70;;;;;;5048862;28;20459;-71
2021/03/14 00:19:30;;;;;;;1.60;1.30;;;4.00;99.70;;;;;;5049041;28;20455;-71
2021/03/14 00:21:57;;;;;;;1.43;1.10;;;4.10;99.70;;;;;;5049667;28;20856;-71
2021/03/14 00:24:23;;;;;;;1.47;1.30;;;4.20;99.70;;;;;;5049372;28;20452;-71
2021/03/14 00:26:49;;;;;;;1.80;1.40;;;4.30;99.70;;;;;;5048711;28;20455;-71
2021/03/14 00:29:16;;;;;;;3.50;1.40;;;4.60;99.70;;;;;;5049496;28;20447;-71
2021/03/14 00:31:42;;;;;;;1.80;1.30;;;4.50;99.70;;;;;;5049462;28;20472;-71
2021/03/14 00:34:09;;;;;;;1.47;1.27;;;4.60;99.70;;;;;;5049659;28;20479;-71
2021/03/14 00:36:35;;;;;;;2.17;1.30;;;4.70;99.70;;;;;;5049091;28;20447;-71
2021/03/14 00:39:01;;;;;;;2.23;1.40;;;4.80;99.70;;;;;;5049466;28;20456;-71
2021/03/14 00:41:27;;;;;;;1.67;1.40;;;4.70;99.70;;;;;;5049394;28;20487;-71
2021/03/14 00:43:53;;;;;;;1.70;1.33;;;4.70;99.70;;;;;;5049420;28;20443;-71
2021/03/14 00:46:20;;;;;;;1.97;1.40;;;4.60;99.70;;;;;;5047673;28;20443;-71
2021/03/14 00:48:46;;;;;;;2.40;1.30;;;4.70;99.70;;;;;;5048978;28;20644;-70
2021/03/14 00:51:13;;;;;;;1.30;1.17;;;4.80;99.70;;;;;;5049451;28;20973;-70
2021/03/14 00:53:39;;;;;;;2.10;1.50;;;5.00;99.70;;;;;;5049469;28;20482;-70
2021/03/14 00:56:06;;;;;;;5.93;1.50;;;4.70;99.70;;;;;;5048651;28;20456;-70
2021/03/14 00:58:33;;;;;;;1.70;1.50;;;4.50;99.70;;;;;;5049095;28;20817;-71
2021/03/14 01:00:59;;;;;;;2.43;1.60;;;4.50;99.70;;;;;;5049366;28;20463;-70
2021/03/14 01:03:26;;;;;;;1.60;1.40;;;4.50;99.70;;;;;;5049157;28;20448;-70
2021/03/14 01:05:52;;;;;;;1.83;1.40;;;4.40;99.70;;;;;;5048440;28;20447;-70
2021/03/14 01:08:19;;;;;;;1.73;1.50;;;4.60;99.70;;;;;;5048907;28;20956;-70
2021/03/14 01:10:46;;;;;;;1.93;1.37;;;4.50;99.70;;;;;;5048780;28;20467;-70
2021/03/14 01:13:12;;;;;;;1.40;1.23;;;4.40;99.70;;;;;;5049118;28;20454;-70
2021/03/14 01:15:38;;;;;;;1.70;1.20;;;4.50;99.70;;;;;;5048550;28;20825;-70
2021/03/14 01:18:05;;;;;;;2.47;1.40;;;4.50;99.70;;;;;;5048742;28;20450;-70
2021/03/14 01:20:32;;;;;;;1.97;1.40;;;4.30;99.70;;;;;;5049013;28;20622;-70
2021/03/14 01:22:58;;;;;;;1.70;1.30;;;4.30;99.70;;;;;;5049085;28;20444;-70
2021/03/14 01:25:24;;;;;;;1.50;1.30;;;4.40;99.70;;;;;;5048319;28;20436;-70
2021/03/14 01:27:51;;;;;;;2.07;1.30;;;4.30;99.70;;;;;;5048674;28;20455;-70
2021/03/14 01:30:19;;;;;;;1.47;1.20;;;4.40;99.70;;;;;;5050144;28;20574;-70
2021/03/14 01:32:46;;;;;;;1.20;1.10;;;4.40;99.70;;;;;;5053115;28;20990;-71
2021/03/14 01:35:14;;;;;;;4.83;1.30;;;4.40;99.70;;;;;;5052208;28;20541;-71
2021/03/14 01:37:41;;;;;;;1.83;1.30;;;4.20;99.70;;;;;;5052337;28;20474;-71
2021/03/14 01:40:09;;;;;;;1.63;1.40;;;4.30;99.70;;;;;;5053733;28;20482;-70
2021/03/14 01:42:35;;;;;;;1.40;1.40;;;4.20;99.70;;;;;;5052660;28;20455;-71
2021/03/14 01:45:02;;;;;;;1.97;1.40;;;4.40;99.70;;;;;;5051071;28;20505;-71
2021/03/14 01:47:33;;;;;;;1.30;1.20;;;4.30;99.70;;;;;;5052224;28;20436;-71
2021/03/14 01:50:00;;;;;;;1.60;1.30;;;4.10;99.70;;;;;;5052527;28;20992;-71
2021/03/14 01:52:27;;;;;;;1.20;1.10;;;4.10;99.70;;;;;;5052256;28;20827;-71
2021/03/14 01:54:54;;;;;;;1.60;1.30;;;4.30;99.70;;;;;;5051896;28;20493;-69
2021/03/14 01:57:20;;;;;;;1.93;1.23;;;4.10;99.70;;;;;;5052025;28;20444;-71
2021/03/14 01:59:47;;;;;;;1.30;1.10;;;4.20;99.70;;;;;;5052016;28;20467;-70
2021/03/14 02:02:13;;;;;;;1.30;1.10;;;4.30;99.70;;;;;;5052195;28;20447;-70
2021/03/14 02:04:39;;;;;;;1.80;1.30;;;4.40;99.70;;;;;;5052230;28;20933;-71
2021/03/14 02:07:05;;;;;;;1.97;1.20;;;4.20;99.70;;;;;;5051158;28;20451;-71
2021/03/14 02:09:32;;;;;;;5.07;1.50;;;4.30;99.70;;;;;;5052130;28;20497;-71
2021/03/14 02:12:02;;;;;;;2.13;1.30;;;4.00;99.70;;;;;;5051997;28;20447;-71
2021/03/14 02:14:30;;;;;;;1.50;1.20;;;4.00;99.70;;;;;;5051961;28;20488;-71
2021/03/14 02:16:59;;;;;;;1.30;1.10;;;4.40;99.70;;;;;;5051142;28;20948;-71
2021/03/14 02:19:28;;;;;;;1.40;1.10;;;4.30;99.70;;;;;;5051784;28;20447;-71
2021/03/14 02:21:58;;;;;;;1.40;1.10;;;4.40;99.70;;;;;;5051843;28;20474;-70
2021/03/14 02:24:28;;;;;;;1.30;1.00;;;4.40;99.70;;;;;;5051744;28;20447;-69
2021/03/14 02:26:59;;;;;;;1.53;1.07;;;4.40;99.70;;;;;;5051106;28;20879;-71
2021/03/14 02:29:26;;;;;;;1.93;1.10;;;4.20;99.70;;;;;;5051723;28;20448;-70
2021/03/14 02:31:54;;;;;;;1.73;0.90;;;4.10;99.70;;;;;;5051585;28;20451;-71
2021/03/14 02:34:24;;;;;;;1.30;1.10;;;4.10;99.70;;;;;;5051633;28;20486;-71
2021/03/14 02:36:52;;;;;;;1.20;1.10;;;4.10;99.70;;;;;;5050734;28;20945;-71
2021/03/14 02:39:22;;;;;;;1.20;1.10;;;4.10;99.70;;;;;;5051674;28;20441;-71
2021/03/14 02:41:51;;;;;;;1.60;1.20;;;4.10;99.70;;;;;;5051035;28;20459;-70
2021/03/14 02:44:20;;;;;;;1.50;1.10;;;3.90;99.70;;;;;;5050348;28;20448;-71
2021/03/14 02:46:47;;;;;;;3.30;1.30;;;3.90;99.70;;;;;;5050479;28;20531;-70
2021/03/14 02:49:14;;;;;;;1.50;1.20;;;3.90;99.70;;;;;;5051309;28;20481;-70
2021/03/14 02:51:41;;;;;;;1.87;1.20;;;3.80;99.70;;;;;;5051128;28;20467;-71
2021/03/14 02:54:08;;;;;;;2.33;1.20;;;3.80;99.70;;;;;;5051213;28;20483;-72
2021/03/14 02:56:35;;;;;;;2.07;1.40;;;3.90;99.70;;;;;;5050602;28;20451;-71
2021/03/14 02:59:03;;;;;;;1.50;1.20;;;3.80;99.70;;;;;;5051058;28;20455;-71
2021/03/14 03:01:31;;;;;;;2.03;1.20;;;4.00;99.70;;;;;;5051043;28;20464;-71
2021/03/14 03:03:59;;;;;;;1.30;1.20;;;4.20;99.70;;;;;;5051163;28;20444;-71
2021/03/14 03:06:26;;;;;;;1.27;1.10;;;4.10;99.70;;;;;;5050421;28;20454;-71
2021/03/14 03:08:53;;;;;;;1.93;1.20;;;4.10;99.70;;;;;;5050557;28;20439;-71
2021/03/14 03:11:20;;;;;;;2.47;1.30;;;4.00;99.70;;;;;;5050859;28;20525;-71
2021/03/14 03:13:47;;;;;;;1.77;1.47;;;3.90;99.70;;;;;;5050483;28;20475;-70
2021/03/14 03:16:16;;;;;;;1.70;1.30;;;3.80;99.70;;;;;;5050371;28;20447;-71
2021/03/14 03:18:45;;;;;;;1.87;1.40;;;4.00;99.70;;;;;;5050438;28;20828;-70
2021/03/14 03:21:11;;;;;;;1.87;1.30;;;3.90;99.70;;;;;;5051007;28;20463;-71
2021/03/14 03:23:38;;;;;;;1.70;1.50;;;4.00;99.70;;;;;;5050944;28;20929;-70
2021/03/14 03:26:05;;;;;;;2.20;1.60;;;4.10;99.70;;;;;;5050381;28;20447;-70
2021/03/14 03:28:32;;;;;;;1.70;1.30;;;4.40;99.70;;;;;;5050593;28;20495;-71
2021/03/14 03:30:58;;;;;;;1.73;1.57;;;4.10;99.70;;;;;;5050830;28;20471;-71
2021/03/14 03:33:24;;;;;;;1.93;1.53;;;4.10;99.70;;;;;;5050776;28;20774;-71
2021/03/14 03:35:51;;;;;;;2.17;1.63;;;4.10;99.70;;;;;;5050307;28;20852;-71
2021/03/14 03:38:17;;;;;;;2.20;1.70;;;4.10;99.70;;;;;;5050381;28;20933;-71
2021/03/14 03:40:43;;;;;;;1.70;1.57;;;4.20;99.70;;;;;;5050483;28;20498;-71
2021/03/14 03:43:15;;;;;;;2.07;1.63;;;4.30;99.70;;;;;;5050673;28;20440;-71
2021/03/14 03:45:46;;;;;;;1.70;1.40;;;4.20;99.70;;;;;;5048090;28;20439;-71
2021/03/14 03:48:18;;;;;;;2.20;1.60;;;4.00;99.70;;;;;;5050289;28;20811;-71
2021/03/14 03:50:46;;;;;;;2.67;1.50;;;4.10;99.70;;;;;;5050102;28;20472;-70
2021/03/14 03:53:13;;;;;;;1.70;1.40;;;4.00;99.70;;;;;;5049840;28;20443;-70
2021/03/14 03:55:41;;;;;;;1.43;1.30;;;4.00;99.70;;;;;;5049829;28;20537;-71
2021/03/14 03:58:10;;;;;;;2.00;1.50;;;4.00;99.70;;;;;;5050413;28;20440;-71
2021/03/14 04:00:37;;;;;;;2.37;1.40;;;3.70;99.70;;;;;;5050233;28;20470;-71
2021/03/14 04:03:04;;;;;;;1.40;1.17;;;3.70;99.70;;;;;;5049989;28;20444;-70
2021/03/14 04:05:31;;;;;;;1.67;1.30;;;3.70;99.70;;;;;;5049613;28;20814;-71
2021/03/14 04:07:58;;;;;;;1.80;1.30;;;3.70;99.70;;;;;;5049660;28;20832;-71
2021/03/14 04:10:27;;;;;;;1.53;1.20;;;3.60;99.70;;;;;;5049835;28;20479;-72
2021/03/14 04:12:55;;;;;;;2.33;1.30;;;3.70;99.70;;;;;;5050024;28;20944;-71
2021/03/14 04:15:24;;;;;;;2.00;1.43;;;3.80;99.70;;;;;;5049509;28;20484;-71
2021/03/14 04:17:52;;;;;;;1.40;1.30;;;3.80;99.70;;;;;;5049746;28;20447;-72
2021/03/14 04:20:20;;;;;;;1.60;1.20;;;3.80;99.70;;;;;;5050157;28;20471;-71
2021/03/14 04:22:51;;;;;;;1.40;1.20;;;3.70;99.70;;;;;;5049859;28;20471;-71
2021/03/14 04:25:19;;;;;;;1.30;1.23;;;3.60;99.70;;;;;;5049289;28;20444;-71
2021/03/14 04:27:48;;;;;;;1.60;1.20;;;3.60;99.70;;;;;;5049214;28;21007;-71
2021/03/14 04:30:16;;;;;;;1.50;1.30;;;3.60;99.70;;;;;;5049588;28;20875;-71
2021/03/14 04:32:43;;;;;;;3.03;1.60;;;3.90;99.70;;;;;;5049479;28;20439;-71
2021/03/14 04:35:11;;;;;;;2.00;1.40;;;4.00;99.70;;;;;;5048810;28;20541;-71
2021/03/14 04:37:39;;;;;;;1.70;1.30;;;4.00;99.70;;;;;;5049160;28;20447;-71
2021/03/14 04:40:07;;;;;;;2.73;1.50;;;3.90;99.70;;;;;;5049121;28;20476;-71
2021/03/14 04:42:34;;;;;;;1.70;1.40;;;3.90;99.70;;;;;;5049532;28;20448;-71
2021/03/14 04:45:02;;;;;;;1.50;1.37;;;3.80;99.70;;;;;;5046950;28;20452;-69
2021/03/14 04:47:28;;;;;;;1.47;1.23;;;3.90;99.70;;;;;;5049044;28;20522;-69
2021/03/14 04:49:54;;;;;;;1.77;1.37;;;4.00;99.70;;;;;;5049218;28;20464;-70
2021/03/14 04:52:22;;;;;;;2.00;1.60;;;3.90;99.70;;;;;;5050042;28;20451;-70
2021/03/14 04:54:50;;;;;;;1.90;1.30;;;4.00;99.70;;;;;;5049228;28;20487;-69
2021/03/14 04:57:17;;;;;;;1.70;1.53;;;4.10;99.70;;;;;;5048739;28;20938;-70
2021/03/14 04:59:44;;;;;;;2.83;1.60;;;4.10;99.70;;;;;;5049169;28;20850;-69
2021/03/14 05:02:12;;;;;;;1.80;1.40;;;3.90;99.70;;;;;;5049207;28;20871;-69
2021/03/14 05:04:39;;;;;;;2.17;1.50;;;3.80;99.70;;;;;;5051311;28;20447;-70
2021/03/14 05:07:07;;;;;;;2.33;1.50;;;3.90;99.70;;;;;;5052573;28;20444;-69
2021/03/14 05:09:33;;;;;;;1.93;1.50;;;3.80;99.70;;;;;;5053197;28;20801;-69
2021/03/14 05:12:00;;;;;;;2.20;1.60;;;3.90;99.70;;;;;;5053567;28;20513;-70
2021/03/14 05:14:27;;;;;;;2.10;1.53;;;3.90;99.70;;;;;;5053123;28;20486;-72
2021/03/14 05:16:53;;;;;;;2.33;1.70;;;3.70;99.70;;;;;;5052574;28;20818;-70
2021/03/14 05:19:21;;;;;;;2.73;1.60;;;3.80;99.70;;;;;;5052981;28;20458;-70
2021/03/14 05:21:47;;;;;;;3.13;1.60;;;3.70;99.70;;;;;;5052845;28;20818;-70
2021/03/14 05:24:14;;;;;;;2.40;1.70;;;3.70;99.70;;;;;;5052860;28;20792;-72
2021/03/14 05:26:43;;;;;;;2.33;1.60;;;3.50;99.70;;;;;;5052185;28;20447;-70
2021/03/14 05:29:11;;;;;;;2.40;1.60;;;3.70;99.70;;;;;;5052635;28;20447;-70
2021/03/14 05:31:39;;;;;;;3.10;1.63;;;3.70;99.70;;;;;;5052595;28;20467;-70
2021/03/14 05:34:07;;;;;;;1.80;1.47;;;3.80;99.70;;;;;;5052344;28;20557;-70
2021/03/14 05:36:35;;;;;;;2.20;1.43;;;3.70;99.70;;;;;;5052207;28;20897;-70
2021/03/14 05:39:07;;;;;;;3.63;1.60;;;3.70;99.70;;;;;;5052313;28;21026;-70
2021/03/14 05:41:35;;;;;;;2.60;1.70;;;3.80;99.70;;;;;;5052415;28;20996;-70
2021/03/14 05:44:02;;;;;;;1.90;1.40;;;3.70;99.70;;;;;;5051560;28;20983;-69
2021/03/14 05:46:29;;;;;;;2.43;1.40;;;3.90;99.70;;;;;;5051699;28;20451;-70
2021/03/14 05:48:55;;;;;;;2.07;1.33;;;3.80;99.70;;;;;;5052097;28;20961;-70
2021/03/14 05:51:25;;;;;;;3.30;1.50;;;3.60;99.70;;;;;;5052207;28;20476;-71
2021/03/14 05:53:54;;;;;;;1.67;1.33;;;3.50;99.70;;;;;;5052264;28;20487;-70
2021/03/14 05:56:21;;;;;;;1.57;1.40;;;3.50;99.70;;;;;;5051726;28;20485;-70
2021/03/14 05:58:49;;;;;;;2.40;1.33;;;3.90;99.70;;;;;;5052107;28;20451;-70
2021/03/14 06:01:17;;;;;;;2.23;1.40;;;4.00;99.70;;;;;;5052256;28;20494;-70
2021/03/14 06:03:45;;;;;;;1.70;1.40;;;3.90;99.70;;;;;;5052123;28;20458;-69
2021/03/14 06:06:13;;;;;;;2.17;1.40;;;3.70;99.70;;;;;;5051771;28;20448;-70
2021/03/14 06:08:40;;;;;;;1.93;1.47;;;3.70;99.70;;;;;;5051823;28;20495;-70
2021/03/14 06:11:08;;;;;;;2.17;1.50;;;3.70;99.70;;;;;;5051771;28;20467;-70
2021/03/14 06:13:35;;;;;;;1.93;1.50;;;3.70;99.70;;;;;;5052007;28;20470;-70
2021/03/14 06:16:01;;;;;;;2.00;1.50;;;3.50;99.70;;;;;;5050615;28;20450;-70
2021/03/14 06:18:28;;;;;;;2.27;1.60;;;3.50;99.70;;;;;;5051625;28;20944;-70
2021/03/14 06:20:55;;;;;;;1.83;1.63;;;3.70;99.70;;;;;;5051826;28;20467;-70
2021/03/14 06:23:23;;;;;;;1.57;1.47;;;3.80;99.70;;;;;;5051900;28;20501;-71
2021/03/14 06:25:51;;;;;;;2.00;1.50;;;3.70;99.70;;;;;;5051025;28;20440;-72
2021/03/14 06:28:32;;;;;;;2.70;1.60;;;3.90;99.70;;;;;;5051499;28;20451;-71
2021/03/14 06:30:58;;;;;;;2.57;1.60;;;3.90;99.70;;;;;;5051617;28;20464;-71
2021/03/14 06:33:27;;;;;;;3.40;1.73;;;3.80;99.70;;;;;;5051532;28;20842;-71
2021/03/14 06:35:54;;;;;;;2.33;1.70;;;3.70;99.70;;;;;;5050865;28;20480;-71
2021/03/14 06:38:23;;;;;;;1.83;1.63;;;3.90;99.70;;;;;;5051468;28;20428;-71
2021/03/14 06:40:52;;;;;;;2.77;1.60;;;4.00;99.70;;;;;;5051124;28;20484;-71
2021/03/14 06:43:20;;;;;;;4.03;1.93;;;4.10;99.70;;;;;;5051683;28;20474;-71
2021/03/14 06:45:46;;;;;;;2.40;1.80;;;4.10;99.70;;;;;;5048620;28;20440;-71
2021/03/14 06:48:23;;;;;;;3.70;1.90;;;4.00;99.70;;;;;;5051109;28;20436;-71
2021/03/14 06:50:49;;;;;;;4.43;1.80;;;4.10;99.70;;;;;;5051341;28;20886;-71
2021/03/14 06:53:17;;;;;;;2.13;1.80;;;3.90;99.70;;;;;;5051289;28;20497;-71
2021/03/14 06:55:45;;;;;;;3.63;2.00;;;4.00;99.70;;;;;;5050368;28;20476;-71
2021/03/14 06:58:26;;;;;;;3.83;1.97;;;4.10;99.70;;;;;;5050821;28;20448;-71
2021/03/14 07:01:13;;;;;;;3.43;1.93;;;4.10;99.70;;;;;;5051015;28;20464;-71
2021/03/14 07:03:41;;;;;;;3.93;2.20;;;4.20;99.70;;;;;;5051076;28;20451;-71
2021/03/14 07:06:18;;;;;;;4.00;2.40;;;4.10;99.70;;;;;;5050644;28;20450;-71
2021/03/14 07:08:46;;;;;;;5.43;2.20;;;4.40;99.70;;;;;;5050800;28;20466;-71
2021/03/14 07:11:13;;;;;;;6.33;2.60;;;4.50;99.70;;;;;;5051067;28;20474;-71
2021/03/14 07:13:40;;;;;;;3.70;2.10;;;4.70;99.70;;;;;;5050836;28;20949;-71
2021/03/14 07:16:07;;;;;;;2.73;2.10;;;4.70;99.70;;;;;;5050411;28;20436;-71
2021/03/14 07:18:34;;;;;;;3.40;1.97;;;4.80;99.70;;;;;;5050800;28;20842;-71
2021/03/14 07:21:01;;;;;;;4.77;2.43;;;4.90;99.70;;;;;;5050913;28;20731;-71
2021/03/14 07:23:34;;;;;;;3.80;2.40;;;5.00;99.70;;;;;;5050949;28;20504;-71
2021/03/14 07:26:01;;;;;;;4.20;2.30;;;5.10;99.70;;;;;;5050618;28;20447;-71
2021/03/14 07:28:27;;;;;;;6.13;2.20;;;5.20;99.70;;;;;;5049400;28;20451;-71
2021/03/14 07:30:54;;;;;;;3.90;2.17;;;5.50;99.70;;;;;;5050526;28;20467;-71
2021/03/14 07:33:21;;;;;;;3.67;1.90;;;5.60;99.70;;;;;;5050641;28;20470;-71
2021/03/14 07:35:48;;;;;;;3.97;1.70;;;6.20;99.70;;;;;;5049655;28;21047;-72
2021/03/14 07:38:15;;;;;;;3.90;2.00;;;7.10;99.70;;;;;;5050085;28;20451;-71
2021/03/14 07:40:42;;;;;;;4.50;2.10;;;7.90;99.70;;;;;;5051512;28;21000;-71
2021/03/14 07:43:09;;;;;;;6.03;1.90;;;7.70;99.70;;;;;;5050369;28;20522;-71
2021/03/14 07:45:37;;;;;;;3.93;2.10;;;7.60;99.70;;;;;;5047875;28;20440;-71
2021/03/14 07:48:06;;;;;;;4.40;2.00;;;7.20;99.70;;;;;;5049978;28;20455;-71
2021/03/14 07:50:45;;;;;;;7.07;2.10;;;7.30;99.70;;;;;;5107651;27;20523;-71
2021/03/14 07:53:13;;;;;;;5.23;1.93;;;7.70;99.70;;;;;;5107431;28;20441;-71
2021/03/14 07:55:45;;;;;;;4.47;1.90;;;8.00;99.70;;;;;;5106829;28;20445;-71
2021/03/14 07:58:13;;;;;;;9.33;2.20;;;8.10;99.70;;;;;;5107123;28;20441;-71
2021/03/14 08:00:40;;;;;;;3.07;1.70;;;8.20;99.70;;;;;;5107331;28;20465;-71
2021/03/14 08:03:08;;;;;;;8.07;2.10;;;8.40;99.70;;;;;;5107048;28;20441;-71
2021/03/14 08:05:51;;;;;;;3.00;1.87;;;8.60;99.70;;;;;;5106700;28;20495;-71
2021/03/14 08:08:47;;;;;;;6.17;2.00;;;8.10;99.70;;;;;;5106680;28;20452;-71
2021/03/14 08:11:28;;;;;;;3.80;2.10;;;7.20;99.70;;;;;;5043938;28;20463;-71
2021/03/14 08:13:54;;;;;;;5.90;2.50;;;6.60;99.70;;;;;;5097879;28;20685;-71
2021/03/14 08:16:21;;;;;;;4.10;2.07;;;6.20;99.70;;;;;;5106357;28;20449;-71
2021/03/14 08:18:48;;;;;;;5.57;2.10;;;6.10;99.70;;;;;;5102360;28;20450;-71
2021/03/14 08:21:39;;;;;;;4.53;2.03;;;6.20;99.70;;;;;;5104949;28;20472;-71
2021/03/14 08:24:06;;;;;;;4.40;2.10;;;6.00;99.70;;;;;;5106667;28;20449;-71
2021/03/14 08:26:34;;;;;;;5.10;2.00;;;5.70;99.70;;;;;;5105995;28;20506;-71
2021/03/14 08:29:01;;;;;;;3.30;2.00;;;5.90;99.70;;;;;;5106396;28;20566;-71
2021/03/14 08:31:38;;;;;;;7.23;2.97;;;6.20;99.70;;;;;;5106369;28;21007;-71
2021/03/14 08:34:05;;;;;;;7.47;3.20;;;6.10;99.70;;;;;;5106599;28;20505;-70
2021/03/14 08:36:33;;;;;;;3.30;2.17;;;6.20;99.70;;;;;;5094931;28;20449;-71
2021/03/14 08:39:00;;;;;;;4.87;2.30;;;6.20;99.70;;;;;;5097220;28;20447;-71
2021/03/14 08:41:40;;;;;;;4.30;2.20;;;6.30;99.70;;;;;;5102066;28;20833;-70
2021/03/14 08:44:09;;;;;;;3.37;2.27;;;6.60;99.70;;;;;;5100867;28;20910;-71
2021/03/14 08:47:09;;;;;;;6.87;2.13;;;6.90;99.70;;;;;;5087958;28;20542;-71
2021/03/14 08:49:46;;;;;;;5.33;2.00;;;7.60;99.70;;;;;;5085471;28;20501;-71
2021/03/14 08:52:12;;;;;;;5.00;2.20;;;7.60;99.70;;;;;;5083873;28;20446;-71
2021/03/14 08:54:41;;;;;;;3.73;1.80;;;7.60;99.70;;;;;;5096011;28;20470;-71
2021/03/14 08:57:10;;;;;;;4.03;2.10;;;7.50;99.70;;;;;;5103844;28;20449;-72
2021/03/14 08:59:45;;;;;;;6.53;1.80;;;7.20;99.70;;;;;;5097715;28;20865;-71
2021/03/14 09:02:19;;;;;;;4.30;1.80;;;7.20;99.70;;;;;;5075967;28;20438;-71
2021/03/14 09:04:45;;;;;;;6.90;2.17;;;6.80;99.70;;;;;;5070788;28;20430;-71
2021/03/14 09:07:12;;;;;;;4.27;2.00;;;6.40;99.70;;;;;;5070445;28;20455;-71
2021/03/14 09:09:40;;;;;;;8.00;2.03;;;6.60;99.70;;;;;;5070139;28;21007;-70
2021/03/14 09:12:08;;;;;;;4.53;2.00;;;6.40;99.70;;;;;;5073444;28;20454;-70
2021/03/14 09:14:38;;;;;;;4.60;1.90;;;6.30;99.70;;;;;;5078668;28;21094;-71
2021/03/14 09:17:08;;;;;;;5.17;1.77;;;6.50;99.70;;;;;;5077477;28;20823;-70
2021/03/14 09:19:37;;;;;;;5.50;1.80;;;6.60;99.70;;;;;;5081551;28;20450;-71
2021/03/14 09:22:06;;;;;;;3.23;1.70;;;6.30;99.70;;;;;;5090562;28;20464;-70
2021/03/14 09:24:36;;;;;;;7.00;1.60;;;6.10;99.70;;;;;;5089495;28;20456;-72
2021/03/14 09:27:06;;;;;;;4.60;1.83;;;6.00;99.70;;;;;;5070389;28;20488;-71
2021/03/14 09:29:41;;;;;;;2.90;1.77;;;6.00;99.70;;;;;;5078576;28;20481;-71
2021/03/14 09:32:28;;;;;;;2.50;1.70;;;5.90;99.70;;;;;;5074737;28;20948;-71
2021/03/14 09:35:18;;;;;;;3.70;1.90;;;6.20;99.70;;;;;;5077214;28;20549;-70
2021/03/14 09:37:46;;;;;;;3.10;1.63;;;6.00;99.70;;;;;;5073326;28;20538;-70
2021/03/14 09:40:22;;;;;;;5.33;1.83;;;6.10;99.70;;;;;;5072406;28;20454;-71
2021/03/14 09:42:50;;;;;;;3.07;1.83;;;6.20;99.70;;;;;;5079298;28;20471;-70
2021/03/14 09:45:18;;;;;;;2.80;1.70;;;6.00;99.70;;;;;;5087602;28;20450;-71
2021/03/14 09:48:00;;;;;;;2.90;1.57;;;6.40;99.70;;;;;;5089490;28;20842;-71
2021/03/14 09:50:28;;;;;;;3.93;2.03;;;6.60;99.70;;;;;;5085688;28;20878;-71
2021/03/14 09:52:59;;;;;;;2.63;1.60;;;6.50;99.70;;;;;;5069649;28;20463;-71
2021/03/14 09:55:28;;;;;;;2.50;1.67;;;6.40;99.70;;;;;;5066994;28;20538;-70
2021/03/14 09:57:55;;;;;;;3.70;1.70;;;6.20;99.70;;;;;;5084261;28;20444;-71
2021/03/14 10:00:23;;;;;;;5.83;2.10;;;6.30;99.70;;;;;;5085340;28;20492;-71
2021/03/14 10:02:49;;;;;;;2.20;1.50;;;6.40;99.70;;;;;;5073120;28;20924;-71
2021/03/14 10:05:16;;;;;;;3.30;1.50;;;7.70;99.70;;;;;;5078151;28;20453;-71
2021/03/14 10:07:42;;;;;;;4.90;1.60;;;8.10;99.70;;;;;;5076646;28;20446;-71
2021/03/14 10:10:11;;;;;;;3.47;1.60;;;7.60;99.70;;;;;;5082235;28;20490;-71
2021/03/14 10:12:38;;;;;;;4.23;1.77;;;7.80;99.70;;;;;;5068806;28;20505;-71
2021/03/14 10:15:08;;;;;;;3.10;1.50;;;7.50;99.70;;;;;;5074770;28;20453;-70
2021/03/14 10:17:34;;;;;;;2.23;1.73;;;7.60;99.70;;;;;;5079819;28;20493;-71
2021/03/14 10:20:01;;;;;;;2.00;1.53;;;7.40;99.70;;;;;;5077273;28;20975;-71
2021/03/14 10:22:32;;;;;;;2.43;1.73;;;7.00;99.70;;;;;;5080104;28;20447;-72
2021/03/14 10:24:58;;;;;;;4.10;2.10;;;7.10;99.70;;;;;;5075976;28;20443;-71
2021/03/14 10:27:25;;;;;;;3.13;1.50;;;7.30;99.70;;;;;;5078318;28;20451;-71
2021/03/14 10:29:56;;;;;;;3.90;1.60;;;7.10;99.70;;;;;;5075933;28;20490;-71
2021/03/14 10:32:25;;;;;;;3.10;1.80;;;7.20;99.70;;;;;;5077168;28;20477;-71
2021/03/14 10:34:52;;;;;;;5.83;2.27;;;7.50;99.70;;;;;;5078567;28;20505;-70
2021/03/14 10:37:27;;;;;;;6.13;1.80;;;7.70;99.70;;;;;;5073340;28;20815;-70
2021/03/14 10:40:00;;;;;;;2.60;1.70;;;7.30;99.70;;;;;;5076223;28;20892;-71
2021/03/14 10:42:35;;;;;;;3.17;1.87;;;7.30;99.70;;;;;;5075818;28;20771;-71
2021/03/14 10:45:04;;;;;;;4.67;2.00;;;7.50;99.70;;;;;;5075545;28;20450;-71
2021/03/14 10:47:32;;;;;;;6.03;1.60;;;7.50;99.70;;;;;;5078979;28;20442;-71
2021/03/14 10:50:10;;;;;;;2.90;1.60;;;7.10;99.70;;;;;;5067114;28;20474;-71
2021/03/14 10:52:36;;;;;;;3.60;1.73;;;7.40;99.70;;;;;;5068733;28;20465;-71
2021/03/14 10:55:19;;;;;;;2.67;1.40;;;7.70;99.70;;;;;;5067530;28;20447;-71
2021/03/14 10:57:46;;;;;;;2.50;1.60;;;7.50;99.70;;;;;;5075097;28;20963;-71
2021/03/14 11:00:14;;;;;;;2.87;1.57;;;7.20;99.70;;;;;;5077496;28;20454;-70
2021/03/14 11:02:42;;;;;;;2.90;1.60;;;7.10;99.70;;;;;;5078228;28;20445;-70
2021/03/14 11:05:10;;;;;;;7.47;1.60;;;7.00;99.70;;;;;;5079275;28;20502;-71
2021/03/14 11:07:37;;;;;;;4.77;1.70;;;7.10;99.70;;;;;;5073544;28;20503;-71
2021/03/14 11:10:11;;;;;;;4.37;1.50;;;7.20;99.70;;;;;;5075534;28;20550;-71
2021/03/14 11:12:39;;;;;;;2.27;1.73;;;7.00;99.70;;;;;;5077353;28;20618;-70
2021/03/14 11:15:07;;;;;;;5.30;2.87;;;7.10;99.70;;;;;;5078466;28;20445;-71
2021/03/14 11:17:35;;;;;;;4.03;2.33;;;6.80;99.70;;;;;;5075736;28;21046;-71
2021/03/14 11:20:06;;;;;;;4.23;2.07;;;6.90;99.70;;;;;;5077169;28;20831;-71
2021/03/14 11:22:32;;;;;;;19.57;7.80;;;6.80;99.70;;;;;;5077111;28;20439;-72
2021/03/14 11:24:58;;;;;;;5.30;2.63;;;7.10;99.70;;;;;;5076784;28;20450;-71
2021/03/14 11:27:25;;;;;;;6.03;2.00;;;7.40;99.70;;;;;;5084608;28;20453;-71
2021/03/14 11:29:51;;;;;;;7.57;3.80;;;7.30;99.70;;;;;;5072626;28;20543;-71
2021/03/14 11:32:18;;;;;;;10.20;4.47;;;7.20;99.70;;;;;;5074935;28;20459;-71
2021/03/14 11:34:46;;;;;;;6.97;3.47;;;7.10;99.70;;;;;;5069804;28;20478;-70
2021/03/14 11:37:15;;;;;;;13.40;5.10;;;7.10;99.70;;;;;;5088465;28;20796;-71
2021/03/14 11:39:41;;;;;;;18.07;7.00;;;6.80;99.70;;;;;;5077363;28;20905;-71
2021/03/14 11:42:09;;;;;;;19.37;6.10;;;6.80;99.70;;;;;;5078647;28;20840;-71
2021/03/14 11:44:36;;;;;;;8.87;2.90;;;7.10;99.70;;;;;;5080628;28;20450;-71
2021/03/14 11:47:02;;;;;;;3.60;2.10;;;7.10;99.70;;;;;;5070093;28;20451;-71
2021/03/14 11:49:29;;;;;;;3.30;1.70;;;7.10;99.70;;;;;;5068204;28;20482;-71
2021/03/14 11:51:55;;;;;;;4.00;2.37;;;7.00;98.60;;;;;;5074013;28;20438;-71
2021/03/14 11:54:22;;;;;;;3.60;2.27;;;7.10;99.40;;;;;;5086740;28;20977;-71
2021/03/14 11:56:50;;;;;;;5.27;1.90;;;7.40;99.70;;;;;;5087301;28;20450;-71
2021/03/14 11:59:16;;;;;;;5.60;2.40;;;7.60;98.50;;;;;;5089249;28;20434;-71
2021/03/14 12:01:46;;;;;;;4.70;2.10;;;7.50;98.90;;;;;;5085176;28;20471;-71
2021/03/14 12:04:12;;;;;;;5.60;2.93;;;7.20;98.40;;;;;;5089429;28;20446;-71
2021/03/14 12:06:38;;;;;;;4.70;2.57;;;7.40;98.30;;;;;;5077394;28;20798;-71
2021/03/14 12:09:07;;;;;;;3.97;2.00;;;7.60;98.70;;;;;;5088270;28;20477;-71
2021/03/14 12:11:34;;;;;;;4.40;2.13;;;7.40;99.30;;;;;;5087137;28;20461;-71
2021/03/14 12:14:01;;;;;;;4.73;1.90;;;7.40;98.40;;;;;;5088584;28;20449;-71
2021/03/14 12:16:27;;;;;;;3.10;2.13;;;7.10;99.60;;;;;;5076179;28;20447;-71
2021/03/14 12:18:55;;;;;;;3.53;1.90;;;7.30;99.70;;;;;;5068532;28;20435;-72
2021/03/14 12:21:21;;;;;;;5.00;2.30;;;7.60;99.70;;;;;;5079993;28;20462;-71
2021/03/14 12:23:47;;;;;;;3.40;2.10;;;7.40;98.90;;;;;;5089395;28;20874;-71
2021/03/14 12:26:13;;;;;;;6.60;2.07;;;7.50;99.70;;;;;;5077265;28;20447;-71
2021/03/14 12:28:41;;;;;;;5.07;1.90;;;7.30;99.70;;;;;;5069101;28;20948;-71
2021/03/14 12:31:07;;;;;;;4.97;2.30;;;7.00;99.70;;;;;;5077026;28;20465;-70
2021/03/14 12:33:33;;;;;;;4.33;1.90;;;6.80;99.70;;;;;;5079928;28;20455;-71
2021/03/14 12:35:59;;;;;;;3.37;1.80;;;7.00;99.70;;;;;;5082650;28;20823;-70
2021/03/14 12:38:26;;;;;;;5.20;1.87;;;7.10;99.70;;;;;;5068809;28;20446;-70
2021/03/14 12:40:53;;;;;;;4.30;1.90;;;6.60;99.70;;;;;;5090266;28;20470;-70
2021/03/14 12:43:20;;;;;;;4.50;1.70;;;6.70;99.70;;;;;;5084502;28;20873;-71
2021/03/14 12:45:49;;;;;;;2.13;1.60;;;6.70;99.70;;;;;;5085808;28;20808;-71
2021/03/14 12:48:16;;;;;;;4.47;1.80;;;6.60;99.70;;;;;;5092312;28;20452;-70
2021/03/14 12:50:43;;;;;;;3.03;1.77;;;6.60;99.70;;;;;;5083238;28;20987;-71
2021/03/14 12:53:09;;;;;;;3.90;2.30;;;6.20;99.70;;;;;;5086027;28;20477;-71
2021/03/14 12:55:35;;;;;;;3.50;1.90;;;6.10;99.70;;;;;;5080337;28;20943;-70
2021/03/14 12:58:02;;;;;;;7.20;2.27;;;5.90;99.70;;;;;;5078678;28;20835;-71
2021/03/14 13:00:28;;;;;;;5.40;2.37;;;5.90;99.70;;;;;;5092224;28;20465;-71
2021/03/14 13:02:55;;;;;;;8.27;2.37;;;6.00;99.70;;;;;;5080915;28;20524;-70
2021/03/14 13:05:22;;;;;;;2.23;1.87;;;5.90;99.70;;;;;;5075542;28;20864;-71